Time;durP1;ratioP1;P1;durP2;ratioP2;P2;SDS_P1;SDS_P2;PMS_P1;PMS_P2;Temp;Humidity;BMP_temperature;BMP_pressure;BME280_temperature;BME280_humidity;BME280_pressure;Samples;Min_cycle;Max_cycle;Signal;HPM_P1;HPM_P2
2024/01/26 00:00:52;;;;;;;3.33;0.70;;;;;;;-143.84;75.60;45220.44;5071741;28;20987;-58
2024/01/26 00:03:19;;;;;;;0.80;0.50;;;;;;;-143.84;75.86;45231.88;5071464;28;20513;-58
2024/01/26 00:05:46;;;;;;;0.80;0.50;;;;;;;-143.84;75.57;45199.50;5071673;28;20932;-58
2024/01/26 00:08:14;;;;;;;0.80;0.60;;;;;;;-143.84;75.71;45205.22;5071558;28;20435;-58
2024/01/26 00:10:43;;;;;;;1.57;0.77;;;;;;;-143.84;75.23;45203.31;5071794;28;20443;-58
2024/01/26 00:13:10;;;;;;;0.80;0.60;;;;;;;-143.84;75.18;45233.78;5071770;28;20474;-57
2024/01/26 00:15:37;;;;;;;0.80;0.40;;;;;;;-143.84;74.89;45193.78;5071311;28;20539;-58
2024/01/26 00:18:05;;;;;;;0.80;0.60;;;;;;;-143.84;75.09;45201.41;5071388;28;21081;-58
2024/01/26 00:20:32;;;;;;;0.80;0.50;;;;;;;-143.84;74.50;45222.34;5071325;28;20476;-57
2024/01/26 00:23:00;;;;;;;0.80;0.40;;;;;;;-143.84;73.64;45178.56;5071261;28;20941;-58
2024/01/26 00:25:27;;;;;;;0.80;0.50;;;;;;;-143.84;72.85;45216.63;5071209;28;20439;-58
2024/01/26 00:27:55;;;;;;;0.93;0.70;;;;;;;-143.84;72.51;45214.72;5071426;28;20499;-58
2024/01/26 00:30:22;;;;;;;2.80;1.70;;;;;;;-143.84;72.13;45203.31;5071182;28;20500;-58
2024/01/26 00:32:50;;;;;;;0.80;0.50;;;;;;;-143.84;71.98;45222.34;5070471;28;20452;-58
2024/01/26 00:35:17;;;;;;;0.80;0.60;;;;;;;-143.84;71.82;45209.03;5070664;28;20944;-58
2024/01/26 00:37:44;;;;;;;1.00;0.77;;;;;;;-143.84;71.37;45216.63;5070239;28;20435;-58
2024/01/26 00:40:12;;;;;;;1.23;1.10;;;;;;;-143.84;71.62;45212.84;5070649;28;20875;-58
2024/01/26 00:42:39;;;;;;;0.80;0.40;;;;;;;-143.84;70.72;45199.50;5070263;28;20817;-58
2024/01/26 00:45:09;;;;;;;0.90;0.60;;;;;;;-143.84;70.72;45207.13;5070883;28;20450;-58
2024/01/26 00:47:36;;;;;;;1.37;0.70;;;;;;;-143.84;71.08;45201.41;5070830;28;20445;-58
2024/01/26 00:50:04;;;;;;;1.33;1.20;;;;;;;-143.84;70.74;45188.06;5070620;28;20473;-58
2024/01/26 00:52:31;;;;;;;1.30;0.80;;;;;;;-143.84;70.96;45197.59;5085653;28;20446;-58
2024/01/26 00:54:58;;;;;;;0.80;0.40;;;;;;;-143.84;71.13;45205.22;5090967;28;20580;-58
2024/01/26 00:57:25;;;;;;;0.90;0.70;;;;;;;-143.84;71.09;45203.31;5078054;28;20451;-58
2024/01/26 00:59:52;;;;;;;0.80;0.50;;;;;;;-143.84;70.93;45207.13;5070519;28;20441;-58
2024/01/26 01:02:21;;;;;;;1.03;0.93;;;;;;;-143.84;71.43;45189.97;5070579;28;20448;-58
2024/01/26 01:04:48;;;;;;;0.80;0.60;;;;;;;-143.84;71.07;45210.94;5070810;28;20444;-58
2024/01/26 01:07:15;;;;;;;0.80;0.50;;;;;;;-143.84;70.86;45189.97;5070369;28;20440;-58
2024/01/26 01:09:41;;;;;;;0.80;0.47;;;;;;;-143.84;70.68;45174.75;5070589;28;20433;-58
2024/01/26 01:12:08;;;;;;;1.00;0.87;;;;;;;-143.84;70.93;45226.16;5070200;28;20579;-58
2024/01/26 01:14:36;;;;;;;0.93;0.83;;;;;;;-143.84;70.94;45191.88;5070265;28;20448;-58
2024/01/26 01:17:04;;;;;;;0.80;0.50;;;;;;;-143.84;70.48;45201.41;5070197;28;20461;-58
2024/01/26 01:19:33;;;;;;;1.00;0.90;;;;;;;-143.84;70.19;45203.31;5070125;28;20474;-58
2024/01/26 01:22:00;;;;;;;0.80;0.50;;;;;;;-143.84;70.04;45197.59;5069927;28;20484;-58
2024/01/26 01:24:27;;;;;;;0.80;0.50;;;;;;;-143.84;70.34;45172.84;5070076;28;20504;-58
2024/01/26 01:26:54;;;;;;;1.97;0.97;;;;;;;-143.84;69.75;45197.59;5069989;28;20937;-57
2024/01/26 01:29:21;;;;;;;1.07;0.80;;;;;;;-143.84;69.26;45201.41;5069706;28;20440;-57
2024/01/26 01:31:48;;;;;;;1.40;1.00;;;;;;;-143.84;69.71;45209.03;5069934;28;20494;-58
2024/01/26 01:34:15;;;;;;;0.80;0.43;;;;;;;-143.84;69.65;45201.41;5070115;28;20437;-58
2024/01/26 01:36:44;;;;;;;0.80;0.60;;;;;;;-143.84;69.54;45228.06;5069743;28;20447;-58
2024/01/26 01:39:11;;;;;;;0.80;0.40;;;;;;;-143.84;69.30;45189.97;5069785;28;20460;-58
2024/01/26 01:41:38;;;;;;;1.57;1.47;;;;;;;-143.84;69.01;45186.16;5069516;28;21012;-58
2024/01/26 01:44:05;;;;;;;0.80;0.60;;;;;;;-143.84;68.74;45216.63;5069447;28;20448;-58
2024/01/26 01:46:32;;;;;;;1.47;1.37;;;;;;;-143.84;68.56;45209.03;5069605;28;20809;-58
2024/01/26 01:49:00;;;;;;;0.80;0.50;;;;;;;-143.84;68.03;45216.63;5069911;28;20440;-58
2024/01/26 01:51:29;;;;;;;1.60;0.60;;;;;;;-143.84;68.40;45199.50;5069532;28;20496;-58
2024/01/26 01:53:59;;;;;;;0.90;0.60;;;;;;;-143.84;68.41;45199.50;5069580;28;20459;-58
2024/01/26 01:56:28;;;;;;;0.80;0.50;;;;;;;-143.84;68.75;45205.22;5069275;28;20938;-57
2024/01/26 01:58:58;;;;;;;0.97;0.87;;;;;;;-143.84;68.55;45201.41;5069441;28;20505;-58
2024/01/26 02:01:25;;;;;;;0.80;0.50;;;;;;;-143.84;68.28;45197.59;5069331;28;20537;-58
2024/01/26 02:03:52;;;;;;;0.80;0.43;;;;;;;-143.84;68.49;45197.59;5069176;28;20440;-58
2024/01/26 02:06:19;;;;;;;0.80;0.50;;;;;;;-143.84;68.29;45188.06;5069467;28;20441;-58
2024/01/26 02:08:46;;;;;;;0.80;0.40;;;;;;;-143.84;68.38;45199.50;5069169;28;20440;-58
2024/01/26 02:11:15;;;;;;;0.80;0.50;;;;;;;-143.84;67.72;45214.72;5069267;28;21000;-58
2024/01/26 02:13:42;;;;;;;0.80;0.40;;;;;;;-143.84;68.26;45172.84;5069035;28;21003;-58
2024/01/26 02:16:09;;;;;;;0.80;0.60;;;;;;;-143.84;68.38;45203.31;5069321;28;20440;-58
2024/01/26 02:18:37;;;;;;;0.80;0.50;;;;;;;-143.84;68.48;45199.50;5068970;28;20440;-58
2024/01/26 02:21:04;;;;;;;0.80;0.50;;;;;;;-143.84;68.80;45228.06;5069003;28;20488;-58
2024/01/26 02:23:33;;;;;;;0.80;0.47;;;;;;;-143.84;68.63;45205.22;5069117;28;21122;-58
2024/01/26 02:26:00;;;;;;;0.80;0.47;;;;;;;-143.84;68.36;45176.66;5069130;28;20458;-58
2024/01/26 02:28:27;;;;;;;0.80;0.60;;;;;;;-143.84;68.55;45224.25;5068848;28;20443;-58
2024/01/26 02:30:54;;;;;;;2.40;2.20;;;;;;;-143.84;68.06;45169.03;5069104;28;20521;-58
2024/01/26 02:33:21;;;;;;;0.80;0.60;;;;;;;-143.84;67.90;45205.22;5068807;28;20875;-58
2024/01/26 02:35:48;;;;;;;0.80;0.40;;;;;;;-143.84;68.01;45193.78;5069025;28;20428;-58
2024/01/26 02:38:15;;;;;;;1.00;0.90;;;;;;;-143.84;68.43;45212.84;5068929;28;20506;-58
2024/01/26 02:40:44;;;;;;;0.80;0.60;;;;;;;-143.84;68.46;45174.75;5068533;28;20440;-58
2024/01/26 02:43:11;;;;;;;0.80;0.60;;;;;;;-143.84;68.64;45216.63;5068859;28;20498;-58
2024/01/26 02:45:38;;;;;;;0.80;0.50;;;;;;;-143.84;68.24;45193.78;5068766;28;20506;-58
2024/01/26 02:48:05;;;;;;;0.80;0.53;;;;;;;-143.84;68.61;45188.06;5068864;28;20502;-58
2024/01/26 02:50:33;;;;;;;0.90;0.80;;;;;;;-143.84;69.00;45195.69;5068700;28;20436;-58
2024/01/26 02:53:00;;;;;;;0.80;0.57;;;;;;;-143.84;69.41;45199.50;5068996;28;20513;-58
2024/01/26 02:55:27;;;;;;;0.90;0.70;;;;;;;-143.84;69.29;45214.72;5068997;28;20495;-58
2024/01/26 02:57:56;;;;;;;0.80;0.60;;;;;;;-143.84;69.68;45212.84;5085682;28;20507;-58
2024/01/26 03:00:23;;;;;;;0.80;0.50;;;;;;;-143.84;69.69;45195.69;5088992;28;20516;-58
2024/01/26 03:02:50;;;;;;;0.80;0.50;;;;;;;-143.84;69.41;45228.06;5088862;28;20479;-58
2024/01/26 03:05:17;;;;;;;0.80;0.40;;;;;;;-143.84;69.60;45199.50;5089753;28;20439;-58
2024/01/26 03:07:44;;;;;;;0.80;0.50;;;;;;;-143.84;69.35;45209.03;5092917;28;20439;-58
2024/01/26 03:10:11;;;;;;;0.80;0.60;;;;;;;-143.84;69.92;45189.97;5093054;28;20501;-58
2024/01/26 03:12:38;;;;;;;0.80;0.40;;;;;;;-143.84;70.23;45210.94;5092659;28;20492;-58
2024/01/26 03:15:08;;;;;;;0.80;0.50;;;;;;;-143.84;71.20;45186.16;5092936;28;21218;-57
2024/01/26 03:17:35;;;;;;;0.80;0.40;;;;;;;-143.84;71.41;45201.41;5092847;28;20508;-58
2024/01/26 03:20:03;;;;;;;0.80;0.50;;;;;;;-143.84;71.56;45224.25;5092962;28;20438;-58
2024/01/26 03:22:30;;;;;;;0.80;0.60;;;;;;;-143.84;72.38;45231.88;5092771;28;20478;-57
2024/01/26 03:24:57;;;;;;;0.80;0.50;;;;;;;-143.84;72.94;45214.72;5092670;28;21062;-58
2024/01/26 03:27:27;;;;;;;0.80;0.60;;;;;;;-143.84;73.37;45195.69;5092741;28;20945;-58
2024/01/26 03:29:55;;;;;;;1.03;0.93;;;;;;;-143.84;73.84;45201.41;5092657;28;20499;-58
2024/01/26 03:32:23;;;;;;;0.80;0.60;;;;;;;-143.84;74.31;45220.44;5092450;28;20449;-58
2024/01/26 03:34:50;;;;;;;1.00;0.83;;;;;;;-143.84;74.75;45216.63;5092587;28;20912;-58
2024/01/26 03:37:17;;;;;;;0.80;0.50;;;;;;;-143.84;74.74;45180.47;5092690;28;21009;-57
2024/01/26 03:39:45;;;;;;;0.80;0.53;;;;;;;-143.84;74.58;45222.34;5092098;28;20944;-57
2024/01/26 03:42:12;;;;;;;0.90;0.77;;;;;;;-143.84;74.72;45201.41;5091721;28;20506;-58
2024/01/26 03:44:39;;;;;;;0.80;0.50;;;;;;;-143.84;74.92;45226.16;5091972;28;20817;-58
2024/01/26 03:47:06;;;;;;;0.80;0.60;;;;;;;-143.84;75.05;45207.13;5092107;28;20450;-58
2024/01/26 03:49:34;;;;;;;1.00;0.60;;;;;;;-143.84;75.14;45243.31;5092128;28;20511;-58
2024/01/26 03:52:01;;;;;;;0.80;0.57;;;;;;;-143.84;75.28;45216.63;5092082;28;20456;-58
2024/01/26 03:54:28;;;;;;;0.80;0.50;;;;;;;-143.84;75.61;45201.41;5091876;28;20858;-58
2024/01/26 03:56:56;;;;;;;1.10;0.87;;;;;;;-143.84;75.38;45203.31;5083036;28;20441;-58
2024/01/26 03:59:23;;;;;;;0.90;0.67;;;;;;;-143.84;75.41;45216.63;5071673;28;20495;-58
2024/01/26 04:01:50;;;;;;;0.80;0.60;;;;;;;-143.84;75.20;45199.50;5071673;28;20506;-58
2024/01/26 04:04:17;;;;;;;0.80;0.50;;;;;;;-143.84;74.90;45197.59;5071756;28;20892;-58
2024/01/26 04:06:45;;;;;;;0.80;0.40;;;;;;;-143.84;75.02;45193.78;5071783;28;20438;-58
2024/01/26 04:09:13;;;;;;;1.67;1.57;;;;;;;-143.84;75.31;45199.50;5082812;28;20454;-58
2024/01/26 04:11:40;;;;;;;0.80;0.50;;;;;;;-143.84;75.67;45189.97;5091487;28;20502;-58
2024/01/26 04:14:07;;;;;;;0.80;0.50;;;;;;;-143.84;76.12;45218.53;5091587;28;20443;-58
2024/01/26 04:16:34;;;;;;;0.80;0.40;;;;;;;-143.84;75.87;45224.25;5091966;28;20437;-58
2024/01/26 04:19:01;;;;;;;0.80;0.50;;;;;;;-143.84;75.91;45207.13;5091718;28;20488;-58
2024/01/26 04:21:28;;;;;;;0.80;0.50;;;;;;;-143.84;76.06;45224.25;5091867;28;20575;-57
2024/01/26 04:23:57;;;;;;;1.03;0.87;;;;;;;-143.84;76.05;45214.72;5087012;28;20454;-58
2024/01/26 04:26:24;;;;;;;0.90;0.60;;;;;;;-143.84;76.41;45228.06;5091247;28;20491;-58
2024/01/26 04:28:51;;;;;;;1.10;1.00;;;;;;;-143.84;76.25;45224.25;5091578;28;20931;-58
2024/01/26 04:31:18;;;;;;;0.80;0.50;;;;;;;-143.84;75.79;45220.44;5091286;28;20484;-58
2024/01/26 04:33:46;;;;;;;0.80;0.40;;;;;;;-143.84;75.71;45212.84;5091447;28;20995;-58
2024/01/26 04:36:13;;;;;;;0.80;0.50;;;;;;;-143.84;76.41;45197.59;5091340;28;20438;-58
2024/01/26 04:38:40;;;;;;;1.03;0.60;;;;;;;-143.84;76.15;45193.78;5090729;28;21083;-57
2024/01/26 04:41:08;;;;;;;0.80;0.63;;;;;;;-143.84;75.92;45203.31;5091152;28;20439;-58
2024/01/26 04:43:36;;;;;;;0.80;0.50;;;;;;;-143.84;75.95;45229.97;5091085;28;20443;-58
2024/01/26 04:46:03;;;;;;;0.80;0.60;;;;;;;-143.84;75.38;45195.69;5091251;28;20442;-58
2024/01/26 04:48:30;;;;;;;0.83;0.63;;;;;;;-143.84;75.44;45250.91;5090944;28;20585;-58
2024/01/26 04:50:58;;;;;;;0.80;0.50;;;;;;;-143.84;74.67;45218.53;5091127;28;20860;-58
2024/01/26 04:53:25;;;;;;;0.80;0.60;;;;;;;-143.84;74.81;45174.75;5090432;28;20443;-58
2024/01/26 04:55:53;;;;;;;0.83;0.57;;;;;;;-143.84;75.03;45201.41;5074102;28;20456;-57
2024/01/26 04:58:22;;;;;;;2.10;0.90;;;;;;;-143.84;75.56;45188.06;5070611;28;20453;-58
2024/01/26 05:00:49;;;;;;;0.80;0.50;;;;;;;-143.84;75.64;45210.94;5074884;28;20860;-58
2024/01/26 05:03:16;;;;;;;0.80;0.40;;;;;;;-143.84;75.75;45220.44;5090651;28;20995;-58
2024/01/26 05:05:44;;;;;;;1.37;1.27;;;;;;;-143.84;75.78;45216.63;5089124;28;20952;-58
2024/01/26 05:08:11;;;;;;;0.80;0.50;;;;;;;-143.84;75.89;45281.38;5090691;28;20508;-58
2024/01/26 05:10:38;;;;;;;0.80;0.50;;;;;;;-143.84;76.01;45201.41;5090813;28;20504;-58
2024/01/26 05:13:05;;;;;;;0.80;0.40;;;;;;;-143.84;76.21;45222.34;5090548;28;21372;-57
2024/01/26 05:15:33;;;;;;;0.80;0.63;;;;;;;-143.84;76.21;45195.69;5090982;28;20441;-58
2024/01/26 05:18:01;;;;;;;0.80;0.40;;;;;;;-143.84;75.86;45209.03;5090470;28;20447;-58
2024/01/26 05:20:28;;;;;;;0.80;0.67;;;;;;;-143.84;75.93;45250.91;5090440;28;20438;-58
2024/01/26 05:22:55;;;;;;;0.90;0.73;;;;;;;-143.84;75.63;45210.94;5090108;28;20494;-58
2024/01/26 05:25:22;;;;;;;0.80;0.50;;;;;;;-143.84;76.11;45210.94;5090357;28;20449;-58
2024/01/26 05:27:49;;;;;;;1.37;0.90;;;;;;;-143.84;76.24;45197.59;5089947;28;20937;-58
2024/01/26 05:30:16;;;;;;;1.00;0.70;;;;;;;-143.84;76.23;45218.53;5090088;28;20454;-58
2024/01/26 05:32:45;;;;;;;0.80;0.50;;;;;;;-143.84;76.12;45228.06;5090274;28;20452;-58
2024/01/26 05:35:12;;;;;;;0.80;0.40;;;;;;;-143.84;76.08;45220.44;5089981;28;20496;-57
2024/01/26 05:37:39;;;;;;;0.90;0.77;;;;;;;-143.84;76.16;45203.31;5089845;28;20438;-57
2024/01/26 05:40:08;;;;;;;0.80;0.50;;;;;;;-143.84;76.09;45241.41;5090249;28;20496;-58
2024/01/26 05:42:35;;;;;;;0.80;0.50;;;;;;;-143.84;76.23;45210.94;5090128;28;20477;-58
2024/01/26 05:45:04;;;;;;;0.80;0.50;;;;;;;-143.84;76.34;45231.88;5089983;28;20438;-58
2024/01/26 05:47:31;;;;;;;1.37;0.70;;;;;;;-143.84;76.06;45205.22;5089724;28;20491;-58
2024/01/26 05:49:59;;;;;;;0.80;0.50;;;;;;;-143.84;76.15;45229.97;5089734;28;20447;-58
2024/01/26 05:52:26;;;;;;;0.80;0.60;;;;;;;-143.84;75.86;45174.75;5089700;28;20454;-58
2024/01/26 05:54:54;;;;;;;0.80;0.60;;;;;;;-143.84;75.72;45239.50;5089752;28;20503;-58
2024/01/26 05:57:21;;;;;;;0.80;0.50;;;;;;;-143.84;75.50;45210.94;5089743;28;20496;-58
2024/01/26 05:59:48;;;;;;;0.80;0.50;;;;;;;-143.84;75.52;45189.97;5089804;28;20439;-58
2024/01/26 06:02:15;;;;;;;1.00;0.90;;;;;;;-143.84;75.44;45209.03;5089354;28;20535;-58
2024/01/26 06:04:42;;;;;;;1.50;1.37;;;;;;;-143.84;75.72;45214.72;5089479;28;20495;-58
2024/01/26 06:07:10;;;;;;;1.00;0.80;;;;;;;-143.84;75.72;45210.94;5089721;28;20928;-58
2024/01/26 06:09:39;;;;;;;0.83;0.67;;;;;;;-143.84;75.67;45209.03;5089427;28;20493;-58
2024/01/26 06:12:07;;;;;;;0.80;0.60;;;;;;;-143.84;75.84;45203.31;5089236;28;20481;-58
2024/01/26 06:14:36;;;;;;;0.80;0.40;;;;;;;-143.84;75.95;45216.63;5089490;28;20434;-58
2024/01/26 06:17:03;;;;;;;0.80;0.50;;;;;;;-143.84;75.72;45201.41;5089514;28;20506;-58
2024/01/26 06:19:30;;;;;;;0.83;0.63;;;;;;;-143.84;75.24;45220.44;5089176;28;20952;-58
2024/01/26 06:21:57;;;;;;;0.80;0.50;;;;;;;-143.84;75.37;45191.88;5089255;28;20544;-58
2024/01/26 06:24:27;;;;;;;0.80;0.50;;;;;;;-143.84;75.71;45214.72;5089270;28;20469;-58
2024/01/26 06:26:54;;;;;;;0.80;0.50;;;;;;;-143.84;75.46;45220.44;5089324;28;20811;-58
2024/01/26 06:29:22;;;;;;;0.80;0.50;;;;;;;-143.84;75.21;45231.88;5089207;28;20449;-58
2024/01/26 06:31:49;;;;;;;0.80;0.50;;;;;;;-143.84;74.92;45199.50;5089057;28;20441;-58
2024/01/26 06:34:16;;;;;;;0.93;0.83;;;;;;;-143.84;74.75;45218.53;5089275;28;20439;-58
2024/01/26 06:36:44;;;;;;;0.80;0.40;;;;;;;-143.84;74.83;45209.03;5089213;28;20453;-58
2024/01/26 06:39:11;;;;;;;1.73;0.90;;;;;;;-143.84;74.65;45205.22;5088997;28;20518;-58
2024/01/26 06:41:43;;;;;;;0.93;0.73;;;;;;;-143.84;74.40;45210.94;5088758;28;21335;-58
2024/01/26 06:44:11;;;;;;;1.83;0.67;;;;;;;-143.84;74.47;45210.94;5089092;28;20433;-58
2024/01/26 06:46:38;;;;;;;1.13;1.03;;;;;;;-143.84;74.24;45205.22;5089039;28;20445;-58
2024/01/26 06:49:05;;;;;;;1.50;1.23;;;;;;;-143.84;73.69;45189.97;5088791;28;20943;-58
2024/01/26 06:51:32;;;;;;;0.80;0.60;;;;;;;-143.84;73.73;45214.72;5088648;28;20488;-58
2024/01/26 06:54:01;;;;;;;0.80;0.40;;;;;;;-143.84;73.47;45209.03;5088551;28;20839;-58
2024/01/26 06:56:28;;;;;;;0.80;0.40;;;;;;;-143.84;73.48;45189.97;5088655;28;20481;-58
2024/01/26 06:58:56;;;;;;;0.80;0.47;;;;;;;-143.84;73.47;45214.72;5088740;28;20439;-58
2024/01/26 07:01:23;;;;;;;1.30;1.03;;;;;;;-143.84;72.91;45218.53;5088786;28;20512;-58
2024/01/26 07:03:51;;;;;;;0.80;0.60;;;;;;;-143.84;72.56;45207.13;5088500;28;20478;-58
2024/01/26 07:06:18;;;;;;;0.80;0.50;;;;;;;-143.84;72.27;45195.69;5088980;28;20441;-58
2024/01/26 07:08:45;;;;;;;0.80;0.40;;;;;;;-143.84;72.14;45203.31;5088732;28;20442;-58
2024/01/26 07:11:13;;;;;;;0.80;0.40;;;;;;;-143.84;72.11;45224.25;5088529;28;20561;-58
2024/01/26 07:13:40;;;;;;;0.80;0.50;;;;;;;-143.84;72.02;45195.69;5088779;28;20940;-58
2024/01/26 07:16:09;;;;;;;0.80;0.40;;;;;;;-143.84;71.88;45249.00;5088757;28;20439;-58
2024/01/26 07:18:37;;;;;;;0.80;0.50;;;;;;;-143.84;71.87;45191.88;5088636;28;20530;-58
2024/01/26 07:21:08;;;;;;;2.60;0.90;;;;;;;-143.84;71.48;45186.16;5088614;28;20767;-58
2024/01/26 07:23:35;;;;;;;8.30;1.13;;;;;;;-143.84;71.54;45207.13;5088638;28;21019;-58
2024/01/26 07:26:02;;;;;;;0.80;0.70;;;;;;;-143.84;70.51;45207.13;5088537;28;20456;-58
2024/01/26 07:28:29;;;;;;;0.80;0.50;;;;;;;-143.84;71.10;45170.94;5088785;28;20810;-58
2024/01/26 07:30:57;;;;;;;0.80;0.80;;;;;;;-143.84;70.71;45220.44;5088824;28;20467;-58
2024/01/26 07:33:25;;;;;;;0.80;0.50;;;;;;;-143.84;70.85;45210.94;5088368;28;20925;-58
2024/01/26 07:35:52;;;;;;;0.80;0.40;;;;;;;-143.84;69.83;45176.66;5088584;28;20685;-57
2024/01/26 07:38:19;;;;;;;0.80;0.40;;;;;;;-143.84;69.26;45189.97;5088989;28;20436;-58
2024/01/26 07:40:47;;;;;;;0.80;0.50;;;;;;;-143.84;68.59;45193.78;5088557;28;20451;-58
2024/01/26 07:43:15;;;;;;;0.80;0.53;;;;;;;-143.84;67.19;45189.97;5088575;28;20508;-58
2024/01/26 07:45:42;;;;;;;0.80;0.60;;;;;;;-143.84;66.77;45199.50;5088618;28;20554;-58
2024/01/26 07:48:12;;;;;;;1.33;1.00;;;;;;;-143.84;67.41;45205.22;5088532;28;20428;-58
2024/01/26 07:50:41;;;;;;;1.00;0.90;;;;;;;-143.84;67.21;45205.22;5088360;28;20472;-58
2024/01/26 07:53:08;;;;;;;1.00;0.90;;;;;;;-143.84;67.33;45176.66;5092159;28;20880;-58
2024/01/26 07:55:35;;;;;;;1.50;1.20;;;;;;;-143.84;67.76;45180.47;5092417;28;20470;-58
2024/01/26 07:58:03;;;;;;;0.80;0.60;;;;;;;-143.84;67.22;45205.22;5092212;28;20447;-58
2024/01/26 08:00:30;;;;;;;0.80;0.50;;;;;;;-143.84;67.62;45182.38;5091834;28;20436;-58
2024/01/26 08:02:57;;;;;;;0.80;0.47;;;;;;;-143.84;66.86;45178.56;5091822;28;20529;-58
2024/01/26 08:05:24;;;;;;;0.80;0.50;;;;;;;-143.84;65.54;45197.59;5091834;28;20446;-58
2024/01/26 08:07:53;;;;;;;0.80;0.50;;;;;;;-143.84;65.80;45159.50;5091799;28;20440;-58
2024/01/26 08:10:20;;;;;;;0.80;0.60;;;;;;;-143.84;65.48;45201.41;5091836;28;20444;-58
2024/01/26 08:12:47;;;;;;;1.43;1.33;;;;;;;-143.84;65.39;45176.66;5091637;28;20522;-58
2024/01/26 08:15:14;;;;;;;0.80;0.63;;;;;;;-143.84;65.45;45205.22;5091621;28;20513;-58
2024/01/26 08:17:41;;;;;;;0.80;0.50;;;;;;;-143.84;64.51;45209.03;5091541;28;20444;-58
2024/01/26 08:20:09;;;;;;;0.90;0.70;;;;;;;-143.84;64.36;45193.78;5091588;28;20432;-58
2024/01/26 08:22:38;;;;;;;1.00;0.90;;;;;;;-143.84;64.23;45180.47;5091445;28;20478;-58
2024/01/26 08:25:08;;;;;;;1.33;1.23;;;;;;;-143.84;63.50;45153.81;5091585;28;20505;-58
2024/01/26 08:27:36;;;;;;;0.90;0.63;;;;;;;-143.84;63.60;45193.78;5091515;28;20451;-58
2024/01/26 08:30:03;;;;;;;0.80;0.40;;;;;;;-143.84;63.53;45199.50;5091313;28;20443;-58
2024/01/26 08:32:30;;;;;;;1.03;0.93;;;;;;;-143.84;62.80;45199.50;5091297;28;20960;-58
2024/01/26 08:34:58;;;;;;;0.80;0.57;;;;;;;-143.84;62.19;45167.13;5091540;28;20458;-58
2024/01/26 08:37:25;;;;;;;0.80;0.60;;;;;;;-143.84;61.68;45170.94;5091198;28;20448;-58
2024/01/26 08:39:52;;;;;;;0.80;0.50;;;;;;;-143.84;60.59;45178.56;5091218;28;20446;-58
2024/01/26 08:42:21;;;;;;;0.80;0.50;;;;;;;-143.84;60.32;45144.28;5091367;28;20558;-57
2024/01/26 08:44:48;;;;;;;1.07;0.93;;;;;;;-143.84;60.51;45169.03;5091046;28;20444;-58
2024/01/26 08:47:15;;;;;;;0.87;0.67;;;;;;;-143.84;60.53;45170.94;5091253;28;20524;-57
2024/01/26 08:49:42;;;;;;;0.80;0.60;;;;;;;-143.84;59.61;45186.16;5091153;28;20807;-58
2024/01/26 08:52:09;;;;;;;0.80;0.53;;;;;;;-143.84;59.95;45157.59;5091353;28;20444;-58
2024/01/26 08:54:36;;;;;;;0.90;0.73;;;;;;;-143.84;59.59;45193.78;5090965;28;20455;-58
2024/01/26 08:57:04;;;;;;;0.80;0.40;;;;;;;-143.84;59.68;45167.13;5090764;28;20439;-57
2024/01/26 08:59:32;;;;;;;0.80;0.60;;;;;;;-143.84;59.18;45207.13;5091083;28;20447;-57
2024/01/26 09:02:01;;;;;;;0.80;0.50;;;;;;;-143.84;59.61;45165.22;5091283;28;21212;-58
2024/01/26 09:04:28;;;;;;;0.80;0.50;;;;;;;-143.84;60.35;45186.16;5089953;28;20583;-58
2024/01/26 09:06:55;;;;;;;0.80;0.50;;;;;;;-143.84;60.06;45170.94;5090853;28;20448;-57
2024/01/26 09:09:22;;;;;;;0.80;0.53;;;;;;;-143.84;60.24;45172.84;5090757;28;20910;-57
2024/01/26 09:11:51;;;;;;;0.80;0.50;;;;;;;-143.84;60.09;45165.22;5090340;28;20479;-57
2024/01/26 09:14:18;;;;;;;2.40;0.70;;;;;;;-143.84;59.82;45176.66;5090297;28;20531;-57
2024/01/26 09:16:52;;;;;;;1.00;0.70;;;;;;;-143.84;59.64;45180.47;5090576;28;20451;-57
2024/01/26 09:19:19;;;;;;;0.80;0.60;;;;;;;-143.84;59.22;45163.31;5090495;28;20448;-57
2024/01/26 09:21:47;;;;;;;0.80;0.40;;;;;;;-143.84;59.50;45174.75;5090608;28;21024;-57
2024/01/26 09:24:14;;;;;;;0.80;0.40;;;;;;;-143.84;60.15;45148.09;5090310;28;20510;-57
2024/01/26 09:26:41;;;;;;;0.80;0.50;;;;;;;-143.84;60.71;45155.69;5090153;28;20447;-57
2024/01/26 09:29:08;;;;;;;1.40;0.73;;;;;;;-143.84;61.08;45178.56;5090407;28;20428;-57
2024/01/26 09:31:35;;;;;;;0.80;0.50;;;;;;;-143.84;60.67;45210.94;5090308;28;20937;-57
2024/01/26 09:34:04;;;;;;;0.80;0.50;;;;;;;-143.84;60.78;45159.50;5090121;28;20497;-57
2024/01/26 09:36:33;;;;;;;0.80;0.40;;;;;;;-143.84;61.06;45165.22;5090324;28;20440;-57
2024/01/26 09:39:00;;;;;;;1.30;1.20;;;;;;;-143.84;62.26;45184.25;5090136;28;20448;-58
2024/01/26 09:41:29;;;;;;;3.90;1.47;;;;;;;-143.84;62.78;45167.13;5089844;28;20440;-57
2024/01/26 09:43:56;;;;;;;1.00;0.80;;;;;;;-143.84;63.75;45180.47;5089816;28;20528;-57
2024/01/26 09:46:23;;;;;;;0.80;0.50;;;;;;;-143.84;63.67;45178.56;5090056;28;20520;-58
2024/01/26 09:48:54;;;;;;;1.83;1.23;;;;;;;-143.84;63.94;45195.69;5089971;28;20806;-57
2024/01/26 09:51:23;;;;;;;0.80;0.50;;;;;;;-143.84;65.19;45210.94;5089895;28;20468;-57
2024/01/26 09:53:52;;;;;;;0.97;0.87;;;;;;;-143.84;65.83;45174.75;5089846;28;20500;-57
2024/01/26 09:56:22;;;;;;;0.80;0.60;;;;;;;-143.84;67.19;45209.03;5089540;28;20501;-57
2024/01/26 09:58:51;;;;;;;0.80;0.60;;;;;;;-143.84;68.56;45197.59;5089404;28;20446;-59
2024/01/26 10:01:22;;;;;;;1.00;0.77;;;;;;;-143.84;69.52;45176.66;5089329;28;20460;-58
2024/01/26 10:03:52;;;;;;;1.03;0.70;;;;;;;-143.84;70.07;45163.31;5089059;28;20488;-58
2024/01/26 10:06:20;;;;;;;0.80;0.50;;;;;;;-143.84;70.86;45172.84;5089588;28;20501;-58
2024/01/26 10:08:49;;;;;;;1.43;0.70;;;;;;;-143.84;71.18;45184.25;5089576;28;20440;-58
2024/01/26 10:11:16;;;;;;;0.83;0.63;;;;;;;-143.84;72.28;45188.06;5089386;28;20922;-58
2024/01/26 10:13:44;;;;;;;1.30;0.87;;;;;;;-143.84;72.69;45216.63;5089411;28;21018;-58
2024/01/26 10:16:13;;;;;;;0.80;0.50;;;;;;;-143.84;73.87;45201.41;5089409;28;21293;-58
2024/01/26 10:18:42;;;;;;;0.80;0.50;;;;;;;-143.84;74.47;45193.78;5089280;28;20442;-58
2024/01/26 10:21:09;;;;;;;0.97;0.73;;;;;;;-143.84;75.20;45247.09;5089347;28;20983;-58
2024/01/26 10:23:36;;;;;;;0.80;0.60;;;;;;;-143.84;75.56;45191.88;5089208;28;20487;-58
2024/01/26 10:26:05;;;;;;;0.80;0.50;;;;;;;-143.84;75.85;45199.50;5089131;28;20458;-58
2024/01/26 10:28:32;;;;;;;1.60;1.50;;;;;;;-143.84;75.87;45201.41;5089349;28;20456;-58
2024/01/26 10:31:00;;;;;;;1.33;1.13;;;;;;;-143.84;75.92;45197.59;5089259;28;20435;-58
2024/01/26 10:33:31;;;;;;;0.80;0.63;;;;;;;-143.84;76.21;45197.59;5089196;28;20435;-58
2024/01/26 10:36:00;;;;;;;1.10;0.60;;;;;;;-143.84;76.53;45201.41;5089141;28;21046;-58
2024/01/26 10:38:30;;;;;;;0.80;0.50;;;;;;;-143.84;76.51;45224.25;5089187;28;20859;-58
2024/01/26 10:41:02;;;;;;;0.80;0.47;;;;;;;-143.84;77.14;45222.34;5089089;28;20447;-58
2024/01/26 10:43:32;;;;;;;0.90;0.80;;;;;;;-143.84;76.80;45210.94;5089341;28;21347;-58
2024/01/26 10:46:02;;;;;;;0.90;0.80;;;;;;;-143.84;77.09;45184.25;5088975;28;20471;-58
2024/01/26 10:48:29;;;;;;;0.80;0.40;;;;;;;-143.84;78.03;45224.25;5089165;28;20537;-58
2024/01/26 10:50:57;;;;;;;0.80;0.60;;;;;;;-143.84;77.56;45161.41;5089064;28;20484;-58
2024/01/26 10:53:25;;;;;;;0.80;0.50;;;;;;;-143.84;78.40;45199.50;5089012;28;20564;-58
2024/01/26 10:55:54;;;;;;;0.80;0.60;;;;;;;-143.84;78.48;45191.88;5088805;28;20440;-58
2024/01/26 10:58:21;;;;;;;0.90;0.70;;;;;;;-143.84;79.05;45191.88;5088764;28;20443;-58
2024/01/26 11:00:50;;;;;;;1.00;0.90;;;;;;;-143.84;79.17;45201.41;5088905;28;20435;-58
2024/01/26 11:03:18;;;;;;;0.80;0.40;;;;;;;-143.84;78.82;45170.94;5088797;28;20840;-58
2024/01/26 11:05:50;;;;;;;1.00;0.73;;;;;;;-143.84;79.12;45193.78;5088774;28;20447;-58
2024/01/26 11:08:21;;;;;;;0.80;0.50;;;;;;;-143.84;78.50;45186.16;5088719;28;21002;-58
2024/01/26 11:10:50;;;;;;;0.90;0.80;;;;;;;-143.84;78.17;45224.25;5088645;28;20454;-58
2024/01/26 11:13:17;;;;;;;1.00;0.77;;;;;;;-143.84;77.84;45188.06;5088728;28;20474;-58
2024/01/26 11:15:47;;;;;;;0.80;0.50;;;;;;;-143.84;77.13;45191.88;5088973;28;20450;-58
2024/01/26 11:18:24;;;;;;;1.20;0.87;;;;;;;-143.84;77.46;45174.75;5088786;28;20522;-58